Time;durP1;ratioP1;P1;durP2;ratioP2;P2;SDS_P1;SDS_P2;PMS_P1;PMS_P2;Temp;Humidity;BMP_temperature;BMP_pressure;BME280_temperature;BME280_humidity;BME280_pressure;Samples;Min_cycle;Max_cycle;Signal;HPM_P1;HPM_P2
2021/09/05 00:02:02;;;;;;;4.82;2.67;;;19.90;59.60;;;;;;2616452;52;20920;-68
2021/09/05 00:04:28;;;;;;;4.30;2.72;;;19.90;59.60;;;;;;2364706;53;20977;-68
2021/09/05 00:06:55;;;;;;;4.30;2.35;;;19.90;59.60;;;;;;2369717;52;21022;-67
2021/09/05 00:09:21;;;;;;;4.18;2.50;;;19.90;59.70;;;;;;2366655;52;20941;-70
2021/09/05 00:11:47;;;;;;;4.60;2.58;;;19.90;59.80;;;;;;2369694;52;20974;-70
2021/09/05 00:14:13;;;;;;;4.25;2.58;;;19.90;59.80;;;;;;2365129;52;20922;-70
2021/09/05 00:16:41;;;;;;;4.10;2.28;;;19.80;59.80;;;;;;2370023;53;20922;-68
2021/09/05 00:19:07;;;;;;;4.40;2.20;;;19.80;59.80;;;;;;2351830;53;21038;-70
2021/09/05 00:21:34;;;;;;;5.60;2.25;;;19.80;59.80;;;;;;2363141;52;20974;-67
2021/09/05 00:24:00;;;;;;;3.62;2.10;;;19.80;59.80;;;;;;2369563;53;20957;-68
2021/09/05 00:26:28;;;;;;;3.87;2.08;;;19.70;59.70;;;;;;2360097;53;20993;-67
2021/09/05 00:28:54;;;;;;;3.92;2.20;;;19.70;59.70;;;;;;2458112;53;20950;-68
2021/09/05 00:31:21;;;;;;;3.37;1.90;;;19.70;59.80;;;;;;2375547;53;20962;-68
2021/09/05 00:33:47;;;;;;;3.67;2.30;;;19.70;59.80;;;;;;2361339;53;21015;-68
2021/09/05 00:36:13;;;;;;;4.43;2.45;;;19.60;59.70;;;;;;2347599;53;20959;-70
2021/09/05 00:38:40;;;;;;;4.80;2.50;;;19.70;59.80;;;;;;2346568;53;20981;-70
2021/09/05 00:41:06;;;;;;;4.00;2.15;;;19.60;59.60;;;;;;2363754;53;20989;-69
2021/09/05 00:43:50;;;;;;;4.00;2.40;;;19.60;59.70;;;;;;2368535;52;20943;-68
2021/09/05 00:46:16;;;;;;;3.65;2.22;;;19.50;59.70;;;;;;2366692;53;21320;-67
2021/09/05 00:48:43;;;;;;;4.20;2.28;;;19.50;59.70;;;;;;2364322;53;20930;-67
2021/09/05 00:51:09;;;;;;;4.15;2.30;;;19.50;59.80;;;;;;2616411;52;21025;-68
2021/09/05 00:53:36;;;;;;;3.62;2.15;;;19.50;59.80;;;;;;2616598;52;20934;-70
2021/09/05 00:56:02;;;;;;;4.00;2.42;;;19.40;59.70;;;;;;2365857;52;20979;-69
2021/09/05 00:58:30;;;;;;;4.18;2.33;;;19.40;59.80;;;;;;2380142;52;21061;-70
2021/09/05 01:00:58;;;;;;;4.28;1.87;;;19.30;59.80;;;;;;2365349;53;20979;-67
2021/09/05 01:03:24;;;;;;;5.75;2.40;;;19.20;59.70;;;;;;2364567;53;21636;-68
2021/09/05 01:05:50;;;;;;;4.78;2.67;;;19.30;59.90;;;;;;2369180;52;21014;-67
2021/09/05 01:08:17;;;;;;;4.18;2.55;;;19.20;59.90;;;;;;2616624;52;21380;-70
2021/09/05 01:10:44;;;;;;;3.30;1.90;;;19.20;60.00;;;;;;2345260;53;21534;-67
2021/09/05 01:13:10;;;;;;;4.20;2.30;;;19.20;60.00;;;;;;2373517;52;21396;-69
2021/09/05 01:15:36;;;;;;;4.37;2.67;;;19.20;60.10;;;;;;2352013;53;20952;-68
2021/09/05 01:18:03;;;;;;;4.78;2.62;;;19.10;60.10;;;;;;2365141;53;21017;-67
2021/09/05 01:20:30;;;;;;;4.22;2.33;;;19.10;60.10;;;;;;2369715;52;20941;-67
2021/09/05 01:22:56;;;;;;;4.80;2.42;;;19.10;60.10;;;;;;2361079;53;21544;-67
2021/09/05 01:25:23;;;;;;;4.15;2.60;;;19.10;60.10;;;;;;2348412;52;21482;-67
2021/09/05 01:27:50;;;;;;;4.60;2.75;;;19.00;60.10;;;;;;2616398;52;21485;-70
2021/09/05 01:30:17;;;;;;;5.93;2.33;;;19.00;60.10;;;;;;2506442;52;20954;-70
2021/09/05 01:32:43;;;;;;;5.00;2.85;;;18.90;60.20;;;;;;2421782;52;21145;-69
2021/09/05 01:35:10;;;;;;;3.70;2.40;;;19.00;60.40;;;;;;2363045;53;20990;-69
2021/09/05 01:37:36;;;;;;;3.80;2.05;;;18.90;60.30;;;;;;2350663;53;21512;-68
2021/09/05 01:40:03;;;;;;;4.82;2.37;;;18.90;60.30;;;;;;2369661;52;20978;-68
2021/09/05 01:42:30;;;;;;;4.45;2.55;;;18.90;60.40;;;;;;2359888;52;20910;-70
2021/09/05 01:44:57;;;;;;;3.72;2.05;;;18.90;60.40;;;;;;2564246;52;21002;-70
2021/09/05 01:47:23;;;;;;;4.78;2.35;;;18.90;60.50;;;;;;2423830;52;21025;-69
2021/09/05 01:49:50;;;;;;;4.93;2.45;;;18.90;60.50;;;;;;2349569;53;20994;-66
2021/09/05 01:52:16;;;;;;;3.92;2.42;;;18.80;60.40;;;;;;2365022;53;20929;-67
2021/09/05 01:54:42;;;;;;;3.70;2.20;;;18.80;60.40;;;;;;2369352;52;20937;-68
2021/09/05 01:57:09;;;;;;;3.90;2.28;;;18.80;60.40;;;;;;2361665;53;20977;-69
2021/09/05 01:59:36;;;;;;;4.35;2.50;;;18.70;60.30;;;;;;2372278;52;20931;-68
2021/09/05 02:02:26;;;;;;;4.75;2.60;;;18.80;60.50;;;;;;2361619;53;20922;-68
2021/09/05 02:04:53;;;;;;;4.75;2.67;;;18.70;60.80;;;;;;2347183;53;21278;-67
2021/09/05 02:07:20;;;;;;;3.85;2.20;;;18.70;60.60;;;;;;2368938;52;20954;-67
2021/09/05 02:09:46;;;;;;;4.30;2.60;;;18.70;60.60;;;;;;2364937;53;20965;-67
2021/09/05 02:12:13;;;;;;;4.80;2.40;;;18.60;60.60;;;;;;2617460;52;21408;-68
2021/09/05 02:14:40;;;;;;;4.68;2.53;;;18.60;60.70;;;;;;2368438;53;21413;-67
2021/09/05 02:17:07;;;;;;;4.45;2.30;;;18.60;60.80;;;;;;2616385;52;20970;-70
2021/09/05 02:19:33;;;;;;;6.20;2.90;;;18.60;60.90;;;;;;2356145;53;21405;-66
2021/09/05 02:22:00;;;;;;;4.78;2.83;;;18.60;60.90;;;;;;2354319;53;20941;-67
2021/09/05 02:24:27;;;;;;;5.18;2.67;;;18.60;60.90;;;;;;2365240;53;21002;-68
2021/09/05 02:26:53;;;;;;;4.93;2.45;;;18.60;61.00;;;;;;2365457;53;21061;-67
2021/09/05 02:29:19;;;;;;;4.82;3.08;;;18.60;61.10;;;;;;2368833;53;20982;-68
2021/09/05 02:31:46;;;;;;;4.43;2.65;;;18.50;61.10;;;;;;2400449;52;20926;-67
2021/09/05 02:34:12;;;;;;;5.37;2.60;;;18.50;61.20;;;;;;2373529;52;21018;-69
2021/09/05 02:36:40;;;;;;;4.28;2.33;;;18.50;61.30;;;;;;2407592;52;20949;-68
2021/09/05 02:39:06;;;;;;;4.37;2.50;;;18.60;61.40;;;;;;2368488;53;20943;-68
2021/09/05 02:41:33;;;;;;;4.45;2.78;;;18.60;61.50;;;;;;2364817;53;21778;-68
2021/09/05 02:43:59;;;;;;;4.43;2.87;;;18.60;61.60;;;;;;2364969;53;21348;-67
2021/09/05 02:46:26;;;;;;;4.65;2.78;;;18.50;61.50;;;;;;2364992;53;20928;-68
2021/09/05 02:48:52;;;;;;;5.35;2.47;;;18.50;61.50;;;;;;2372148;52;21021;-67
2021/09/05 02:51:18;;;;;;;4.80;2.05;;;18.50;61.50;;;;;;2369409;52;20958;-67
2021/09/05 02:53:45;;;;;;;4.25;2.30;;;18.60;61.60;;;;;;2364731;53;20942;-70
2021/09/05 02:56:11;;;;;;;4.25;2.35;;;18.60;61.60;;;;;;2365714;52;21495;-69
2021/09/05 02:58:39;;;;;;;4.85;2.35;;;18.60;61.60;;;;;;2369366;52;20963;-67
2021/09/05 03:01:06;;;;;;;4.10;2.37;;;18.50;61.40;;;;;;2369145;52;21026;-68
2021/09/05 03:03:32;;;;;;;5.12;2.72;;;18.60;61.50;;;;;;2369847;53;20938;-71
2021/09/05 03:05:59;;;;;;;3.72;2.37;;;18.50;61.30;;;;;;2370400;52;21397;-68
2021/09/05 03:08:25;;;;;;;4.78;3.12;;;18.50;61.20;;;;;;2359406;53;21420;-68
2021/09/05 03:10:51;;;;;;;5.03;2.58;;;18.50;61.20;;;;;;2362725;53;20997;-68
2021/09/05 03:13:18;;;;;;;4.65;2.55;;;18.50;61.30;;;;;;2373891;52;20967;-69
2021/09/05 03:15:45;;;;;;;4.78;2.78;;;18.50;61.40;;;;;;2352995;53;21029;-67
2021/09/05 03:18:11;;;;;;;4.55;2.70;;;18.40;61.40;;;;;;2370092;52;21415;-68
2021/09/05 03:20:37;;;;;;;4.55;2.80;;;18.40;61.40;;;;;;2422806;52;21032;-68
2021/09/05 03:23:04;;;;;;;5.50;3.17;;;18.40;61.50;;;;;;2369444;52;20963;-67
2021/09/05 03:25:30;;;;;;;5.03;2.62;;;18.40;61.50;;;;;;2365148;53;21018;-70
2021/09/05 03:27:56;;;;;;;5.35;3.08;;;18.40;61.50;;;;;;2365292;53;21762;-69
2021/09/05 03:30:23;;;;;;;4.65;2.80;;;18.40;61.50;;;;;;2435905;52;21378;-68
2021/09/05 03:32:49;;;;;;;5.12;2.72;;;18.30;61.50;;;;;;2616752;52;21447;-67
2021/09/05 03:35:15;;;;;;;5.45;3.03;;;18.30;61.50;;;;;;2404914;52;21583;-69
2021/09/05 03:37:42;;;;;;;4.87;3.10;;;18.30;61.50;;;;;;2365540;53;21695;-68
2021/09/05 03:40:09;;;;;;;5.78;2.62;;;18.30;61.50;;;;;;2364773;53;21057;-68
2021/09/05 03:42:35;;;;;;;5.18;3.00;;;18.20;61.40;;;;;;2348086;53;20978;-68
2021/09/05 03:45:03;;;;;;;4.60;2.90;;;18.20;61.50;;;;;;2365227;53;20997;-69
2021/09/05 03:47:29;;;;;;;4.85;2.87;;;18.20;61.50;;;;;;2366015;53;20950;-67
2021/09/05 03:49:57;;;;;;;4.57;2.62;;;18.20;61.60;;;;;;2364545;53;21005;-68
2021/09/05 03:52:25;;;;;;;4.90;2.83;;;18.20;61.80;;;;;;2368379;53;20938;-68
2021/09/05 03:54:52;;;;;;;5.53;3.10;;;18.20;61.80;;;;;;2369760;52;20951;-67
2021/09/05 03:57:18;;;;;;;4.60;2.65;;;18.10;61.70;;;;;;2616527;52;20930;-68
2021/09/05 03:59:45;;;;;;;4.75;2.78;;;18.10;61.80;;;;;;2365059;53;21493;-67
2021/09/05 04:02:11;;;;;;;5.45;2.58;;;18.10;61.80;;;;;;2365454;53;20945;-67
2021/09/05 04:04:38;;;;;;;5.22;2.87;;;18.10;61.80;;;;;;2368498;53;21139;-69
2021/09/05 04:07:05;;;;;;;4.55;2.97;;;18.10;61.70;;;;;;2365379;53;21044;-67
2021/09/05 04:12:19;;;;;;;5.10;2.90;;;18.00;61.80;;;;;;2594716;52;21741;-69
2021/09/05 04:14:45;;;;;;;4.05;2.42;;;18.00;61.80;;;;;;2365360;53;21092;-68
2021/09/05 04:17:12;;;;;;;4.03;2.60;;;18.00;61.90;;;;;;2365455;53;20942;-68
2021/09/05 04:19:38;;;;;;;4.70;2.85;;;18.00;61.90;;;;;;2350051;53;21411;-69
2021/09/05 04:22:05;;;;;;;4.75;2.55;;;18.00;62.00;;;;;;2365006;53;20953;-70
2021/09/05 04:24:31;;;;;;;3.85;2.25;;;18.00;62.00;;;;;;2374139;53;21427;-68
2021/09/05 04:26:57;;;;;;;5.22;3.12;;;17.90;61.90;;;;;;2363350;53;20950;-67
2021/09/05 04:29:23;;;;;;;5.12;3.08;;;17.90;61.90;;;;;;2446491;52;21461;-69
2021/09/05 04:31:50;;;;;;;4.28;2.75;;;17.90;61.90;;;;;;2369557;53;21034;-68
2021/09/05 04:34:16;;;;;;;4.43;2.50;;;17.90;61.90;;;;;;2602996;52;21045;-68
2021/09/05 04:36:43;;;;;;;3.70;2.28;;;17.90;61.90;;;;;;2365434;53;20917;-69
2021/09/05 04:39:09;;;;;;;4.22;2.33;;;17.90;61.90;;;;;;2350530;53;20979;-68
2021/09/05 04:41:35;;;;;;;4.22;2.33;;;17.90;61.90;;;;;;2365812;53;21327;-69
2021/09/05 04:44:01;;;;;;;5.12;2.92;;;17.80;61.80;;;;;;2365036;53;20941;-67
2021/09/05 04:46:28;;;;;;;5.07;2.60;;;17.80;62.60;;;;;;2370332;52;21528;-67
2021/09/05 04:48:57;;;;;;;5.47;2.78;;;17.80;61.90;;;;;;2616059;52;20930;-68
2021/09/05 04:51:23;;;;;;;6.55;3.83;;;17.80;62.00;;;;;;2616481;52;21344;-68
2021/09/05 04:53:50;;;;;;;4.30;2.67;;;17.80;62.00;;;;;;2364402;52;21500;-68
2021/09/05 04:56:17;;;;;;;4.22;2.97;;;17.80;62.10;;;;;;2502209;52;21407;-68
2021/09/05 04:58:44;;;;;;;4.18;2.60;;;17.70;62.00;;;;;;2368847;52;20983;-68
2021/09/05 05:01:11;;;;;;;3.67;2.12;;;17.70;62.00;;;;;;2346078;53;20982;-72
2021/09/05 05:03:38;;;;;;;4.72;2.70;;;17.70;62.00;;;;;;2364436;53;20957;-67
2021/09/05 05:06:12;;;;;;;4.90;2.53;;;17.70;62.00;;;;;;2349570;53;21081;-68
2021/09/05 05:08:39;;;;;;;4.15;2.70;;;17.70;62.00;;;;;;2587041;52;20969;-67
2021/09/05 05:11:05;;;;;;;4.00;2.30;;;17.70;62.10;;;;;;2369044;52;21395;-70
2021/09/05 05:13:31;;;;;;;3.75;2.20;;;17.70;62.10;;;;;;2365005;53;21401;-71
2021/09/05 05:15:57;;;;;;;4.18;2.62;;;17.60;62.20;;;;;;2364885;53;20942;-69
2021/09/05 05:18:24;;;;;;;6.30;3.15;;;17.60;62.20;;;;;;2365075;53;20946;-69
2021/09/05 05:20:50;;;;;;;4.43;2.85;;;17.60;62.30;;;;;;2368906;53;20926;-68
2021/09/05 05:23:17;;;;;;;8.07;2.90;;;17.60;62.50;;;;;;2365277;53;20950;-69
2021/09/05 05:25:43;;;;;;;5.05;2.90;;;17.60;62.50;;;;;;2364870;52;21866;-67
2021/09/05 05:28:10;;;;;;;4.93;2.90;;;17.60;62.50;;;;;;2368488;52;21522;-68
2021/09/05 05:30:36;;;;;;;6.43;2.80;;;17.60;62.60;;;;;;2369528;52;21018;-68
2021/09/05 05:33:02;;;;;;;4.32;2.50;;;17.60;62.70;;;;;;2367982;52;21016;-67
2021/09/05 05:35:29;;;;;;;4.12;2.62;;;17.60;62.70;;;;;;2360020;53;21041;-67
2021/09/05 05:37:55;;;;;;;4.10;2.70;;;17.60;62.80;;;;;;2358893;53;21106;-70
2021/09/05 05:40:25;;;;;;;4.87;3.17;;;17.70;62.90;;;;;;2368081;52;21290;-68
2021/09/05 05:42:52;;;;;;;5.32;2.90;;;17.70;63.00;;;;;;2373845;52;21060;-67
2021/09/05 05:45:18;;;;;;;4.78;2.90;;;17.70;62.90;;;;;;2368800;52;20967;-67
2021/09/05 05:47:45;;;;;;;5.12;3.30;;;17.70;62.90;;;;;;2525223;52;20960;-67
2021/09/05 05:50:11;;;;;;;6.07;2.95;;;17.70;62.90;;;;;;2368306;52;20990;-68
2021/09/05 05:52:38;;;;;;;4.32;2.72;;;17.70;63.10;;;;;;2368802;52;21800;-68
2021/09/05 05:55:04;;;;;;;4.60;2.75;;;17.70;63.10;;;;;;2348052;53;21300;-66
2021/09/05 05:57:31;;;;;;;4.62;2.47;;;17.70;63.10;;;;;;2365545;52;21112;-67
2021/09/05 05:59:57;;;;;;;5.03;2.72;;;17.70;63.10;;;;;;2350273;53;21419;-67
2021/09/05 06:02:24;;;;;;;4.90;2.30;;;17.70;63.20;;;;;;2359372;53;20974;-72
2021/09/05 06:04:50;;;;;;;3.20;1.95;;;17.80;63.40;;;;;;2364789;53;20929;-69
2021/09/05 06:07:17;;;;;;;3.22;2.00;;;17.80;63.50;;;;;;2368633;53;21086;-72
2021/09/05 06:09:43;;;;;;;3.65;2.30;;;17.80;63.50;;;;;;2366938;53;20974;-69
2021/09/05 06:12:10;;;;;;;3.75;2.40;;;17.80;63.60;;;;;;2363948;53;21523;-67
2021/09/05 06:14:36;;;;;;;5.28;3.05;;;17.80;63.70;;;;;;2365188;53;20981;-70
2021/09/05 06:17:03;;;;;;;4.78;2.97;;;17.90;63.90;;;;;;2363979;53;20950;-68
2021/09/05 06:19:30;;;;;;;4.55;2.53;;;17.90;64.00;;;;;;2369054;52;21435;-67
2021/09/05 06:21:56;;;;;;;4.78;2.65;;;18.00;64.20;;;;;;2558112;52;21056;-70
2021/09/05 06:24:22;;;;;;;5.55;2.70;;;18.10;64.20;;;;;;2609331;52;21021;-67
2021/09/05 06:26:48;;;;;;;3.92;2.55;;;18.10;64.20;;;;;;2367997;53;21412;-68
2021/09/05 06:29:15;;;;;;;4.65;2.72;;;18.20;64.30;;;;;;2362196;52;20986;-69
2021/09/05 06:31:41;;;;;;;5.00;2.78;;;18.20;64.40;;;;;;2365465;53;21104;-68
2021/09/05 06:34:07;;;;;;;4.75;2.85;;;18.30;64.50;;;;;;2364537;53;21439;-68
2021/09/05 06:36:34;;;;;;;6.32;3.00;;;18.30;64.60;;;;;;2368298;53;20997;-67
2021/09/05 06:39:01;;;;;;;4.65;2.90;;;18.40;64.70;;;;;;2369716;53;21041;-67
2021/09/05 06:41:29;;;;;;;7.10;3.25;;;18.40;64.80;;;;;;2351707;53;20949;-70
2021/09/05 06:43:56;;;;;;;4.43;2.78;;;18.50;65.10;;;;;;2345223;53;21423;-69
2021/09/05 06:46:23;;;;;;;4.95;3.20;;;18.60;65.50;;;;;;2367370;53;21543;-68
2021/09/05 06:48:50;;;;;;;4.90;3.00;;;18.70;65.70;;;;;;2545698;52;20966;-68
2021/09/05 06:51:18;;;;;;;5.75;3.55;;;18.80;66.00;;;;;;2364502;53;21077;-68
2021/09/05 06:53:45;;;;;;;5.37;3.10;;;18.90;66.00;;;;;;2365419;53;20998;-68
2021/09/05 06:56:12;;;;;;;4.60;3.00;;;19.10;66.10;;;;;;2369837;52;21122;-68
2021/09/05 06:58:39;;;;;;;6.50;2.90;;;19.20;66.00;;;;;;2364338;53;20985;-70
2021/09/05 07:01:05;;;;;;;4.18;2.85;;;19.30;66.10;;;;;;2368049;53;20958;-67
2021/09/05 07:03:32;;;;;;;5.37;3.08;;;19.40;66.10;;;;;;2538565;52;21524;-69
2021/09/05 07:05:58;;;;;;;5.10;3.10;;;19.50;66.20;;;;;;2369461;52;21447;-71
2021/09/05 07:08:24;;;;;;;5.10;3.30;;;19.60;66.20;;;;;;2360341;53;20958;-67
2021/09/05 07:10:51;;;;;;;4.28;2.85;;;19.70;66.30;;;;;;2365836;53;20969;-68
2021/09/05 07:13:17;;;;;;;4.93;3.20;;;19.80;66.30;;;;;;2369633;52;21074;-68
2021/09/05 07:15:43;;;;;;;5.22;3.20;;;19.90;66.40;;;;;;2369325;52;20949;-67
2021/09/05 07:18:10;;;;;;;4.87;3.25;;;20.00;66.40;;;;;;2360583;53;21021;-69
2021/09/05 07:20:36;;;;;;;5.03;3.20;;;20.10;66.40;;;;;;2360894;53;20941;-71
2021/09/05 07:23:03;;;;;;;5.53;3.37;;;20.20;66.30;;;;;;2616848;52;20930;-71
2021/09/05 07:25:30;;;;;;;7.62;3.20;;;20.30;66.30;;;;;;2371659;52;21050;-70
2021/09/05 07:27:56;;;;;;;7.57;3.62;;;20.40;66.30;;;;;;2607204;52;20933;-67
2021/09/05 07:30:26;;;;;;;5.00;3.50;;;20.50;66.30;;;;;;2602889;52;21080;-69
2021/09/05 07:32:52;;;;;;;4.90;3.30;;;20.60;66.20;;;;;;2614943;52;20986;-68
2021/09/05 07:35:20;;;;;;;5.87;3.45;;;20.70;66.10;;;;;;2359704;53;20991;-67
2021/09/05 07:37:47;;;;;;;5.78;3.62;;;20.80;66.10;;;;;;2370801;52;20926;-68
2021/09/05 07:40:14;;;;;;;5.90;3.25;;;20.90;66.10;;;;;;2365455;53;21896;-68
2021/09/05 07:42:41;;;;;;;8.32;3.35;;;21.00;66.20;;;;;;2618668;52;20947;-68
2021/09/05 07:45:09;;;;;;;6.28;3.45;;;21.10;66.20;;;;;;2606059;52;20994;-69
2021/09/05 07:47:35;;;;;;;6.82;4.03;;;21.20;66.20;;;;;;2477756;53;21529;-70
2021/09/05 07:50:02;;;;;;;5.22;3.33;;;21.30;66.10;;;;;;2371307;53;20931;-69
2021/09/05 07:52:28;;;;;;;5.07;3.40;;;21.40;66.00;;;;;;2600663;52;20925;-72
2021/09/05 07:54:55;;;;;;;5.68;3.40;;;21.50;66.10;;;;;;2366789;53;20975;-71
2021/09/05 07:57:21;;;;;;;4.62;3.22;;;21.60;66.00;;;;;;2354013;53;20966;-68
2021/09/05 07:59:47;;;;;;;5.35;3.58;;;21.70;65.80;;;;;;2365958;53;20921;-68
2021/09/05 08:02:13;;;;;;;5.93;3.67;;;21.80;65.90;;;;;;2596787;52;21066;-70
2021/09/05 08:04:42;;;;;;;5.65;3.50;;;21.90;65.90;;;;;;2365321;53;20965;-69
2021/09/05 08:07:09;;;;;;;5.70;3.92;;;22.00;66.00;;;;;;2567846;52;20966;-68
2021/09/05 08:09:35;;;;;;;4.87;3.70;;;22.10;65.90;;;;;;2366181;53;20961;-72
2021/09/05 08:12:04;;;;;;;6.03;4.25;;;22.20;65.90;;;;;;2618001;52;20965;-67
2021/09/05 08:14:30;;;;;;;6.10;4.25;;;22.30;65.70;;;;;;2369952;53;20997;-68
2021/09/05 08:16:57;;;;;;;7.28;4.10;;;22.40;65.50;;;;;;2467161;52;21009;-71
2021/09/05 08:19:23;;;;;;;6.85;4.47;;;22.50;65.50;;;;;;2543207;52;20946;-69
2021/09/05 08:21:50;;;;;;;5.62;3.90;;;22.60;65.40;;;;;;2609830;52;20966;-69
2021/09/05 08:24:16;;;;;;;8.63;4.37;;;22.70;65.40;;;;;;2370727;53;20941;-70
2021/09/05 08:26:47;;;;;;;6.25;4.72;;;22.70;65.20;;;;;;2610633;52;21387;-68
2021/09/05 08:29:14;;;;;;;6.22;4.22;;;22.80;65.00;;;;;;2370941;53;20958;-69
2021/09/05 08:31:40;;;;;;;7.03;4.15;;;22.90;64.80;;;;;;2352835;53;21457;-70
2021/09/05 08:34:07;;;;;;;6.55;4.25;;;23.00;64.70;;;;;;2347397;53;21361;-72
2021/09/05 08:36:33;;;;;;;6.50;3.72;;;23.10;64.70;;;;;;2366900;53;21347;-71
2021/09/05 08:39:00;;;;;;;4.93;3.60;;;23.20;64.50;;;;;;2367239;53;20957;-70
2021/09/05 08:41:28;;;;;;;6.60;4.00;;;23.20;64.30;;;;;;2366656;53;20938;-67
2021/09/05 08:43:54;;;;;;;6.03;4.18;;;23.30;64.40;;;;;;2366837;53;20914;-71
2021/09/05 08:46:21;;;;;;;6.95;4.95;;;23.40;64.40;;;;;;2367035;53;21097;-68
2021/09/05 08:48:49;;;;;;;6.97;4.43;;;23.50;64.30;;;;;;2370979;53;20962;-67
2021/09/05 08:51:15;;;;;;;9.15;4.10;;;23.50;64.10;;;;;;2560098;52;20986;-68
2021/09/05 08:53:42;;;;;;;6.20;4.47;;;23.60;64.20;;;;;;2367184;53;20952;-70
2021/09/05 08:56:08;;;;;;;6.35;4.18;;;23.70;64.10;;;;;;2466041;52;20973;-68
2021/09/05 08:58:34;;;;;;;5.80;4.05;;;23.80;64.00;;;;;;2366527;53;20957;-68
2021/09/05 09:01:17;;;;;;;6.53;3.58;;;23.90;63.90;;;;;;2425865;52;21835;-67
2021/09/05 09:03:47;;;;;;;5.30;3.55;;;23.90;63.20;;;;;;2368122;53;21464;-67
2021/09/05 09:06:20;;;;;;;5.90;3.92;;;24.10;63.50;;;;;;2548829;52;21449;-69
2021/09/05 09:08:56;;;;;;;6.05;4.07;;;24.20;63.20;;;;;;2366668;52;20981;-68
2021/09/05 09:11:23;;;;;;;6.00;4.18;;;24.30;63.00;;;;;;2618378;52;20922;-68
2021/09/05 09:13:55;;;;;;;5.78;4.07;;;24.40;63.10;;;;;;2429847;52;20906;-69
2021/09/05 09:16:22;;;;;;;7.45;5.22;;;24.40;62.80;;;;;;2383952;52;20981;-67
2021/09/05 09:18:48;;;;;;;6.65;4.43;;;24.50;62.60;;;;;;2366566;53;21560;-67
2021/09/05 09:21:17;;;;;;;6.07;4.00;;;24.60;62.40;;;;;;2366992;53;20909;-69
2021/09/05 09:23:44;;;;;;;5.30;3.72;;;24.60;62.20;;;;;;2370829;53;20927;-68
2021/09/05 09:26:13;;;;;;;4.85;3.40;;;24.70;62.40;;;;;;2347552;53;21504;-69
2021/09/05 09:28:46;;;;;;;6.32;4.00;;;24.80;62.40;;;;;;2366552;53;20989;-68
2021/09/05 09:31:23;;;;;;;5.53;3.90;;;24.80;61.90;;;;;;2351887;53;21049;-68
2021/09/05 09:33:54;;;;;;;6.53;4.05;;;24.90;61.50;;;;;;2366760;53;21000;-68
2021/09/05 09:36:22;;;;;;;5.18;3.58;;;25.00;61.60;;;;;;2400519;52;20961;-70
2021/09/05 09:39:04;;;;;;;8.02;4.22;;;25.00;61.60;;;;;;2371689;52;21040;-69
2021/09/05 09:41:39;;;;;;;5.47;3.55;;;25.10;60.80;;;;;;2361709;53;20992;-68
2021/09/05 09:44:13;;;;;;;5.25;3.58;;;25.20;61.10;;;;;;2369683;53;20974;-68
2021/09/05 09:46:40;;;;;;;5.32;3.20;;;25.20;61.10;;;;;;2596031;52;21421;-69
2021/09/05 09:49:07;;;;;;;5.55;3.90;;;25.30;61.20;;;;;;2366718;53;21002;-71
2021/09/05 09:51:34;;;;;;;5.87;4.05;;;25.30;61.10;;;;;;2366640;53;21037;-70
2021/09/05 09:54:01;;;;;;;6.78;4.50;;;25.40;60.80;;;;;;2366560;53;20999;-68
2021/09/05 09:56:28;;;;;;;5.53;4.00;;;25.50;60.60;;;;;;2619082;52;21001;-70
2021/09/05 09:59:00;;;;;;;6.97;4.60;;;25.50;60.80;;;;;;2374977;52;20995;-70
2021/09/05 10:01:28;;;;;;;8.03;5.33;;;25.60;60.30;;;;;;2348867;53;20958;-69
2021/09/05 10:03:56;;;;;;;6.50;4.10;;;25.70;60.20;;;;;;2364530;53;21114;-69
2021/09/05 10:06:32;;;;;;;6.97;3.67;;;25.70;60.60;;;;;;2441591;52;21950;-70
2021/09/05 10:09:13;;;;;;;6.22;3.85;;;25.80;60.40;;;;;;2364363;53;21471;-68
2021/09/05 10:11:39;;;;;;;5.70;3.83;;;25.90;59.70;;;;;;2592160;52;20930;-69
2021/09/05 10:14:05;;;;;;;5.78;3.85;;;26.00;60.10;;;;;;2616472;52;21217;-70
2021/09/05 10:16:33;;;;;;;7.07;4.80;;;26.00;60.00;;;;;;2364880;53;21001;-68
2021/09/05 10:19:04;;;;;;;6.55;4.15;;;26.10;59.30;;;;;;2365154;53;20930;-68
2021/09/05 10:21:34;;;;;;;5.35;3.78;;;26.20;59.00;;;;;;2364889;53;21923;-69
2021/09/05 10:24:00;;;;;;;4.82;3.00;;;26.20;59.10;;;;;;2367766;53;21257;-68
2021/09/05 10:26:26;;;;;;;6.03;3.87;;;26.30;59.10;;;;;;2517137;52;21085;-70
2021/09/05 10:28:54;;;;;;;5.47;3.55;;;26.30;58.90;;;;;;2364857;53;20942;-69
2021/09/05 10:31:29;;;;;;;4.68;3.20;;;26.30;58.70;;;;;;2589145;52;21516;-69
2021/09/05 10:33:59;;;;;;;5.03;3.40;;;26.40;58.70;;;;;;2367856;53;21474;-69
2021/09/05 10:36:26;;;;;;;4.95;3.15;;;26.40;58.90;;;;;;2367194;52;21020;-69
2021/09/05 10:39:03;;;;;;;5.65;3.60;;;26.50;58.90;;;;;;2371027;53;20974;-68
2021/09/05 10:41:31;;;;;;;4.45;3.22;;;26.50;58.80;;;;;;2618687;52;21014;-70
2021/09/05 10:44:08;;;;;;;5.90;3.60;;;26.70;58.80;;;;;;2371428;52;20959;-69
2021/09/05 10:46:43;;;;;;;4.80;3.40;;;26.70;58.10;;;;;;2357337;53;21033;-69
2021/09/05 10:49:37;;;;;;;5.07;3.55;;;26.70;58.20;;;;;;2364877;53;20972;-68
2021/09/05 10:52:04;;;;;;;5.10;3.20;;;26.80;57.70;;;;;;2370478;53;21325;-68
2021/09/05 10:54:30;;;;;;;5.65;3.65;;;26.90;58.30;;;;;;2365609;53;21012;-69
2021/09/05 10:56:59;;;;;;;4.68;3.37;;;26.90;58.00;;;;;;2369501;52;20950;-70
2021/09/05 10:59:31;;;;;;;5.07;3.67;;;27.00;57.90;;;;;;2461299;52;20981;-69
2021/09/05 11:01:58;;;;;;;6.68;3.42;;;27.00;57.90;;;;;;2370324;53;21328;-70
2021/09/05 11:05:47;;;;;;;5.97;3.60;;;27.10;57.80;;;;;;2374725;53;20983;-69
2021/09/05 11:08:22;;;;;;;4.60;3.00;;;27.20;57.20;;;;;;2618729;52;20921;-69
2021/09/05 11:10:49;;;;;;;4.80;3.22;;;27.20;57.30;;;;;;2366705;53;20966;-71
2021/09/05 11:13:45;;;;;;;5.30;3.30;;;27.30;57.60;;;;;;2523579;52;21515;-70
2021/09/05 11:16:18;;;;;;;5.12;3.55;;;27.30;57.30;;;;;;2366918;53;21025;-73
2021/09/05 11:18:44;;;;;;;4.62;3.12;;;27.40;57.40;;;;;;2383998;52;21027;-69
2021/09/05 11:21:25;;;;;;;4.68;2.95;;;27.40;57.60;;;;;;2360535;53;20952;-70
2021/09/05 11:23:52;;;;;;;4.95;3.20;;;27.60;57.10;;;;;;2504268;52;1421093;-71
2021/09/05 11:26:18;;;;;;;5.40;3.35;;;27.60;57.50;;;;;;2531015;52;21008;-70
2021/09/05 11:28:45;;;;;;;5.45;3.75;;;27.70;57.40;;;;;;2565060;52;21066;-72
2021/09/05 11:31:11;;;;;;;6.12;3.80;;;27.70;57.00;;;;;;2366827;53;20937;-71
2021/09/05 11:33:39;;;;;;;5.22;3.05;;;27.80;57.00;;;;;;2620183;52;20957;-67
2021/09/05 11:36:10;;;;;;;5.22;3.45;;;27.80;56.90;;;;;;2370871;52;20946;-69
2021/09/05 11:38:37;;;;;;;4.87;2.97;;;27.90;56.70;;;;;;2365604;53;20964;-70
2021/09/05 11:41:05;;;;;;;4.20;2.95;;;27.90;56.70;;;;;;2362715;52;20993;-70
2021/09/05 11:43:40;;;;;;;5.32;2.78;;;28.00;56.50;;;;;;2373790;52;21027;-69
2021/09/05 11:46:13;;;;;;;4.87;3.30;;;28.00;55.90;;;;;;2359944;53;20962;-69
2021/09/05 11:48:40;;;;;;;4.70;3.33;;;28.10;55.80;;;;;;2370739;52;21051;-70
2021/09/05 11:51:06;;;;;;;4.78;3.28;;;28.10;56.10;;;;;;2369748;53;20964;-69
2021/09/05 11:53:33;;;;;;;4.93;3.37;;;28.10;56.00;;;;;;2356155;53;20957;-67
2021/09/05 11:55:59;;;;;;;4.68;3.37;;;28.10;55.90;;;;;;2578873;52;21037;-67
2021/09/05 11:58:26;;;;;;;4.85;3.20;;;28.10;55.70;;;;;;2610830;52;21477;-69
2021/09/05 12:01:04;;;;;;;4.40;3.05;;;28.20;55.70;;;;;;2449415;52;20926;-68
2021/09/05 12:03:30;;;;;;;4.70;3.03;;;28.20;55.20;;;;;;2375554;52;21494;-70
2021/09/05 12:05:57;;;;;;;4.68;3.17;;;28.20;55.60;;;;;;2368281;52;20929;-67
2021/09/05 12:08:23;;;;;;;4.60;3.37;;;28.30;55.40;;;;;;2375794;52;21894;-68
2021/09/05 12:11:00;;;;;;;4.70;3.40;;;28.30;55.20;;;;;;2387003;52;20966;-73
2021/09/05 12:13:26;;;;;;;5.45;3.12;;;28.30;54.50;;;;;;2359017;53;20932;-69
2021/09/05 12:16:29;;;;;;;5.05;3.47;;;28.30;55.00;;;;;;2358804;52;20966;-67
2021/09/05 12:19:02;;;;;;;;;;;28.40;54.30;;;;;;2390242;52;20927;-69
2021/09/05 12:21:36;;;;;;;4.40;2.50;;;28.50;54.90;;;;;;2353689;52;20474;-68
2021/09/05 12:24:03;;;;;;;5.45;2.90;;;28.50;55.10;;;;;;2446179;53;20971;-68
2021/09/05 12:26:35;;;;;;;5.72;3.33;;;28.60;55.10;;;;;;2525714;52;21056;-69
2021/09/05 12:29:03;;;;;;;4.87;3.05;;;28.70;54.50;;;;;;2590374;52;20998;-67
2021/09/05 12:31:46;;;;;;;4.90;2.97;;;28.70;54.70;;;;;;2616069;52;20910;-69
2021/09/05 12:34:57;;;;;;;4.57;3.20;;;28.70;53.80;;;;;;2450448;52;20961;-71
2021/09/05 12:37:35;;;;;;;7.93;3.20;;;28.80;53.50;;;;;;2363261;52;20919;-70
2021/09/05 12:40:13;;;;;;;4.15;2.65;;;28.80;53.70;;;;;;2364099;52;20957;-69
2021/09/05 12:42:46;;;;;;;4.20;2.80;;;28.90;53.40;;;;;;2368623;53;21032;-68
2021/09/05 12:45:13;;;;;;;4.47;2.87;;;29.00;53.90;;;;;;2364203;52;20929;-68
2021/09/05 12:47:40;;;;;;;4.05;2.87;;;29.00;54.30;;;;;;2461216;52;20937;-69
2021/09/05 12:50:07;;;;;;;3.95;2.85;;;29.10;54.20;;;;;;2368444;53;21033;-71
2021/09/05 12:52:33;;;;;;;4.22;2.90;;;29.20;54.10;;;;;;2364855;53;20966;-69
2021/09/05 12:55:00;;;;;;;4.18;2.83;;;29.20;53.90;;;;;;2617617;52;21030;-71
2021/09/05 12:57:26;;;;;;;5.15;2.80;;;29.30;53.70;;;;;;2358903;52;21460;-68